createdAt,value
2023-02-27T00:00:20.858Z,56.13
2023-02-27T00:02:50.774Z,55.94
2023-02-27T00:05:19.118Z,55.96
2023-02-27T00:07:47.020Z,55.98
2023-02-27T00:10:15.686Z,56.04
2023-02-27T00:12:44.305Z,55.81
2023-02-27T00:15:15.649Z,56.11
2023-02-27T00:17:43.584Z,56.29
2023-02-27T00:20:14.505Z,56.23
2023-02-27T00:22:43.072Z,56.11
2023-02-27T00:25:11.736Z,56.24
2023-02-27T00:27:39.861Z,56.31
2023-02-27T00:30:11.254Z,55.98
2023-02-27T00:32:40.664Z,56.31
2023-02-27T00:35:10.879Z,56.12
2023-02-27T00:37:38.924Z,56.19
2023-02-27T00:40:08.045Z,56.36
2023-02-27T00:42:36.049Z,56.42
2023-02-27T00:45:03.835Z,56.09
2023-02-27T00:47:31.707Z,56.19
2023-02-27T00:50:01.148Z,56.13
2023-02-27T00:52:29.277Z,56.20
2023-02-27T00:54:56.861Z,56.25
2023-02-27T00:57:24.504Z,56.64
2023-02-27T00:59:52.254Z,56.30
2023-02-27T01:02:19.888Z,56.21
2023-02-27T01:04:47.500Z,56.39
2023-02-27T01:07:16.522Z,56.50
2023-02-27T01:09:44.638Z,56.46
2023-02-27T01:12:12.290Z,56.78
2023-02-27T01:14:40.074Z,56.57
2023-02-27T01:17:07.736Z,56.66
2023-02-27T01:19:35.370Z,56.31
2023-02-27T01:22:03.055Z,56.58
2023-02-27T01:24:31.980Z,56.40
2023-02-27T01:26:59.934Z,56.63
2023-02-27T01:29:27.627Z,56.67
2023-02-27T01:31:55.355Z,56.48
2023-02-27T01:34:23.019Z,56.77
2023-02-27T01:36:50.646Z,56.71
2023-02-27T01:39:18.286Z,57.00
2023-02-27T01:41:47.612Z,56.94
2023-02-27T01:44:15.953Z,56.86
2023-02-27T01:46:43.848Z,56.79
2023-02-27T01:49:16.791Z,56.81
2023-02-27T01:51:48.733Z,56.66
2023-02-27T01:54:21.460Z,56.93
2023-02-27T01:56:51.606Z,56.73
2023-02-27T01:59:20.585Z,56.79
2023-02-27T02:01:48.490Z,56.85
2023-02-27T02:04:20.823Z,56.77
2023-02-27T02:06:53.963Z,56.89
2023-02-27T02:09:22.843Z,57.05
2023-02-27T02:11:52.131Z,57.14
2023-02-27T02:14:19.813Z,56.99
2023-02-27T02:17:03.662Z,56.82
2023-02-27T02:19:57.163Z,57.01
2023-02-27T02:22:58.115Z,57.01
2023-02-27T02:25:53.174Z,56.88
2023-02-27T02:28:46.697Z,56.99
2023-02-27T02:31:41.089Z,56.91
2023-02-27T02:34:30.787Z,57.11
2023-02-27T02:37:36.544Z,57.08
2023-02-27T02:40:30.587Z,57.05
2023-02-27T02:43:07.054Z,57.05
2023-02-27T02:45:42.968Z,57.00
2023-02-27T02:48:15.239Z,56.97
2023-02-27T02:50:49.729Z,57.03
2023-02-27T02:53:36.078Z,56.60
2023-02-27T02:56:11.849Z,57.12
2023-02-27T02:58:48.781Z,57.06
2023-02-27T03:01:18.914Z,57.35
2023-02-27T03:03:52.378Z,57.42
2023-02-27T03:06:24.524Z,57.06
2023-02-27T03:08:57.008Z,56.86
2023-02-27T03:11:30.772Z,57.33
2023-02-27T03:14:05.543Z,57.13
2023-02-27T03:16:37.613Z,57.45
2023-02-27T03:19:11.678Z,57.04
2023-02-27T03:21:44.581Z,57.09
2023-02-27T03:24:19.722Z,57.02
2023-02-27T03:26:52.827Z,57.14
2023-02-27T03:29:27.408Z,57.16
2023-02-27T03:31:59.730Z,57.29
2023-02-27T03:34:30.137Z,57.32
2023-02-27T03:37:03.889Z,57.38
2023-02-27T03:39:41.386Z,57.33
2023-02-27T03:42:17.689Z,57.42
2023-02-27T03:44:55.943Z,57.27
2023-02-27T03:47:23.789Z,57.64
2023-02-27T03:49:52.127Z,57.51
2023-02-27T03:52:20.645Z,57.49
2023-02-27T03:54:53.529Z,57.15
2023-02-27T03:57:22.464Z,57.41
2023-02-27T03:59:50.623Z,57.34
2023-02-27T04:02:18.505Z,57.61
2023-02-27T04:04:46.282Z,57.25
2023-02-27T04:07:23.389Z,57.33
2023-02-27T04:10:30.052Z,57.54
2023-02-27T04:13:34.971Z,57.50
2023-02-27T04:16:24.302Z,57.49
2023-02-27T04:19:04.286Z,57.36
2023-02-27T04:21:39.193Z,57.63
2023-02-27T04:24:20.465Z,57.69
2023-02-27T04:26:52.188Z,57.34
2023-02-27T04:29:26.358Z,57.27
2023-02-27T04:32:00.583Z,57.44
2023-02-27T04:34:33.312Z,57.48
2023-02-27T04:37:07.777Z,57.68
2023-02-27T04:39:40.551Z,57.60
2023-02-27T04:42:12.939Z,57.42
2023-02-27T04:44:43.781Z,57.44
2023-02-27T04:47:16.069Z,57.83
2023-02-27T04:49:48.696Z,57.50
2023-02-27T04:52:23.206Z,57.67
2023-02-27T04:54:55.196Z,57.66
2023-02-27T04:57:27.855Z,57.62
2023-02-27T04:59:58.432Z,57.58
2023-02-27T05:02:30.718Z,57.61
2023-02-27T05:05:01.380Z,57.11
2023-02-27T05:07:34.519Z,57.56
2023-02-27T05:10:06.552Z,57.46
2023-02-27T05:12:39.563Z,57.59
2023-02-27T05:15:15.355Z,57.48
2023-02-27T05:17:47.341Z,57.73
2023-02-27T05:20:16.615Z,57.56
2023-02-27T05:22:48.924Z,57.63
2023-02-27T05:25:24.726Z,57.38
2023-02-27T05:27:58.251Z,57.45
2023-02-27T05:30:32.574Z,57.39
2023-02-27T05:33:06.694Z,57.43
2023-02-27T05:35:40.503Z,57.50
2023-02-27T05:38:16.015Z,57.17
2023-02-27T05:40:48.512Z,57.47
2023-02-27T05:43:20.744Z,57.46
2023-02-27T05:45:54.292Z,57.55
2023-02-27T05:48:25.926Z,57.66
2023-02-27T05:50:55.678Z,57.67
2023-02-27T05:53:26.854Z,57.56
2023-02-27T05:55:56.780Z,57.74
2023-02-27T05:58:29.627Z,57.74
2023-02-27T06:01:01.112Z,58.08
2023-02-27T06:03:30.192Z,57.85
2023-02-27T06:06:00.019Z,57.85
2023-02-27T06:08:28.180Z,57.80
2023-02-27T06:10:55.988Z,57.69
2023-02-27T06:13:24.115Z,58.11
2023-02-27T06:15:51.746Z,57.95
2023-02-27T06:18:21.613Z,57.67
2023-02-27T06:20:50.041Z,57.68
2023-02-27T06:23:18.147Z,58.03
2023-02-27T06:25:45.839Z,57.80
2023-02-27T06:28:13.480Z,57.81
2023-02-27T06:30:41.199Z,57.92
2023-02-27T06:33:09.346Z,57.91
2023-02-27T06:35:38.327Z,57.84
2023-02-27T06:38:06.062Z,58.03
2023-02-27T06:40:33.674Z,57.92
2023-02-27T06:43:01.304Z,57.81
2023-02-27T06:45:29.029Z,57.65
2023-02-27T06:47:56.651Z,57.69
2023-02-27T06:50:24.493Z,57.56
2023-02-27T06:52:53.460Z,57.70
2023-02-27T06:55:22.680Z,57.76
2023-02-27T06:57:50.664Z,57.43
2023-02-27T07:00:19.222Z,57.81
2023-02-27T07:02:46.885Z,57.38
2023-02-27T07:05:14.509Z,57.61
2023-02-27T07:07:42.098Z,57.82
2023-02-27T07:10:14.043Z,57.49
2023-02-27T07:12:42.307Z,57.82
2023-02-27T07:15:10.804Z,57.81
2023-02-27T07:17:38.858Z,57.89
2023-02-27T07:20:08.208Z,58.05
2023-02-27T07:22:35.927Z,57.71
2023-02-27T07:25:04.234Z,57.65
2023-02-27T07:27:33.955Z,58.19
2023-02-27T07:30:02.084Z,57.97
2023-02-27T07:32:29.695Z,57.75
2023-02-27T07:34:57.310Z,57.92
2023-02-27T07:37:27.653Z,57.99
2023-02-27T07:39:56.037Z,57.91
2023-02-27T07:42:23.759Z,58.08
2023-02-27T07:44:52.820Z,57.94
2023-02-27T07:47:20.410Z,58.01
2023-02-27T07:49:48.001Z,58.00
2023-02-27T07:52:15.632Z,57.89
2023-02-27T07:54:43.319Z,58.20
2023-02-27T07:57:11.003Z,58.11
2023-02-27T07:59:38.603Z,57.81
2023-02-27T08:02:07.603Z,58.13
2023-02-27T08:04:35.280Z,57.93
2023-02-27T08:07:03.104Z,57.97
2023-02-27T08:09:30.751Z,58.16
2023-02-27T08:11:58.366Z,58.05
2023-02-27T08:14:26.055Z,57.91
2023-02-27T08:16:53.629Z,58.07
2023-02-27T08:19:22.621Z,58.18
2023-02-27T08:21:50.220Z,57.85
2023-02-27T08:24:17.918Z,58.00
2023-02-27T08:26:45.627Z,58.34
2023-02-27T08:29:14.551Z,58.19
2023-02-27T08:31:43.221Z,58.15
2023-02-27T08:34:11.110Z,58.24
2023-02-27T08:36:40.575Z,58.19
2023-02-27T08:39:09.306Z,58.10
2023-02-27T08:41:37.550Z,58.16
2023-02-27T08:44:05.632Z,58.23
2023-02-27T08:46:33.420Z,58.26
2023-02-27T08:49:01.074Z,57.99
2023-02-27T08:51:29.182Z,57.92
2023-02-27T08:53:59.073Z,57.91
2023-02-27T08:56:27.250Z,57.96
2023-02-27T08:58:55.366Z,57.79
2023-02-27T09:01:23.837Z,58.08
2023-02-27T09:03:51.486Z,58.06
2023-02-27T09:06:19.141Z,58.19
2023-02-27T09:08:46.756Z,58.14
2023-02-27T09:11:15.691Z,58.14
2023-02-27T09:13:43.340Z,58.06
2023-02-27T09:16:11.255Z,58.35
2023-02-27T09:18:38.886Z,58.23
2023-02-27T09:21:06.921Z,57.94
2023-02-27T09:23:34.561Z,58.18
2023-02-27T09:26:02.157Z,58.08
2023-02-27T09:28:31.158Z,58.07
2023-02-27T09:31:01.628Z,58.32
2023-02-27T09:33:29.412Z,58.45
2023-02-27T09:35:57.611Z,58.47
2023-02-27T09:38:25.335Z,58.07
2023-02-27T09:40:55.027Z,58.21
2023-02-27T09:43:26.721Z,58.42
2023-02-27T09:45:57.032Z,58.25
2023-02-27T09:48:31.056Z,58.23
2023-02-27T09:51:00.025Z,58.59
2023-02-27T09:53:32.164Z,58.42
2023-02-27T09:56:08.104Z,58.40
2023-02-27T09:58:51.962Z,58.38
2023-02-27T10:01:24.462Z,58.50
2023-02-27T10:04:19.017Z,58.32
2023-02-27T10:06:51.128Z,58.17
2023-02-27T10:09:38.729Z,58.33
2023-02-27T10:12:29.346Z,58.50
2023-02-27T10:15:02.887Z,58.17
2023-02-27T10:17:36.210Z,58.03
2023-02-27T10:20:10.760Z,57.87
2023-02-27T10:22:44.113Z,58.20
2023-02-27T10:25:30.313Z,58.03
2023-02-27T10:28:09.809Z,58.13
2023-02-27T10:30:38.112Z,58.17
2023-02-27T10:33:12.414Z,58.34
2023-02-27T10:35:42.263Z,58.39
2023-02-27T10:38:16.001Z,58.30
2023-02-27T10:40:44.258Z,58.35
2023-02-27T10:43:15.924Z,58.01
2023-02-27T10:45:44.440Z,58.30
2023-02-27T10:48:14.738Z,58.48
2023-02-27T10:50:45.049Z,58.44
2023-02-27T10:53:21.360Z,58.02
2023-02-27T10:56:00.017Z,58.06
2023-02-27T10:58:34.454Z,58.44
2023-02-27T11:01:05.083Z,58.55
2023-02-27T11:03:40.552Z,58.44
2023-02-27T11:06:14.463Z,58.10
2023-02-27T11:08:43.652Z,58.42
2023-02-27T11:11:12.957Z,58.73
2023-02-27T11:13:42.295Z,58.20
2023-02-27T11:16:15.263Z,58.23
2023-02-27T11:18:45.724Z,58.72
2023-02-27T11:21:23.545Z,58.36
2023-02-27T11:23:55.866Z,58.09
2023-02-27T11:26:30.618Z,57.98
2023-02-27T11:29:18.906Z,58.61
2023-02-27T11:31:49.840Z,58.35
2023-02-27T11:34:29.444Z,58.40
2023-02-27T11:37:01.592Z,58.62
2023-02-27T11:39:36.309Z,58.50
2023-02-27T11:42:17.259Z,58.23
2023-02-27T11:44:54.392Z,58.46
2023-02-27T11:47:28.238Z,58.13
2023-02-27T11:50:29.558Z,58.48
2023-02-27T11:53:10.136Z,57.95
2023-02-27T11:55:38.861Z,58.21
2023-02-27T11:58:14.618Z,58.17
2023-02-27T12:00:48.320Z,58.41
2023-02-27T12:03:23.877Z,58.55
2023-02-27T12:05:55.578Z,58.10
2023-02-27T12:08:32.739Z,58.40
2023-02-27T12:11:13.622Z,58.56
2023-02-27T12:13:47.138Z,58.17
2023-02-27T12:16:21.166Z,58.18
2023-02-27T12:18:52.564Z,58.07
2023-02-27T12:21:24.523Z,58.67
2023-02-27T12:23:58.027Z,58.58
2023-02-27T12:26:30.809Z,58.35
2023-02-27T12:29:04.194Z,58.20
2023-02-27T12:31:42.183Z,58.58
2023-02-27T12:34:20.803Z,58.32
2023-02-27T12:36:49.736Z,58.51
2023-02-27T12:39:20.737Z,58.55
2023-02-27T12:42:22.121Z,58.38
2023-02-27T12:45:22.776Z,58.71
2023-02-27T12:48:03.630Z,58.57
2023-02-27T12:50:45.642Z,58.38
2023-02-27T12:53:29.187Z,58.61
2023-02-27T12:56:04.909Z,58.53
2023-02-27T12:58:45.053Z,58.83
2023-02-27T13:01:21.902Z,58.50
2023-02-27T13:03:56.011Z,58.79
2023-02-27T13:06:30.590Z,58.43
2023-02-27T13:09:11.374Z,58.69
2023-02-27T13:11:47.959Z,58.63
2023-02-27T13:14:29.809Z,58.73
2023-02-27T13:17:01.453Z,58.63
2023-02-27T13:19:33.190Z,58.51
2023-02-27T13:22:08.740Z,58.61
2023-02-27T13:24:47.007Z,58.74
2023-02-27T13:27:20.802Z,58.83
2023-02-27T13:30:00.846Z,58.74
2023-02-27T13:32:44.164Z,58.58
2023-02-27T13:35:26.717Z,58.93
2023-02-27T13:37:57.355Z,58.67
2023-02-27T13:40:36.333Z,58.61
2023-02-27T13:43:07.105Z,58.51
2023-02-27T13:45:54.881Z,58.64
2023-02-27T13:48:40.994Z,58.63
2023-02-27T13:51:31.012Z,58.74
2023-02-27T13:54:15.949Z,58.27
2023-02-27T13:56:47.994Z,58.76
2023-02-27T13:59:22.328Z,58.48
2023-02-27T14:01:54.233Z,58.72
2023-02-27T14:04:24.861Z,59.13
2023-02-27T14:06:59.602Z,59.10
2023-02-27T14:09:34.750Z,58.62
2023-02-27T14:12:06.202Z,58.62
2023-02-27T14:14:44.279Z,58.54
2023-02-27T14:17:13.596Z,58.86
2023-02-27T14:19:56.759Z,58.88
2023-02-27T14:22:53.362Z,58.80
2023-02-27T14:25:34.669Z,58.72
2023-02-27T14:28:05.119Z,59.02
2023-02-27T14:30:40.736Z,58.92
2023-02-27T14:33:21.689Z,58.86
2023-02-27T14:36:01.166Z,59.09
2023-02-27T14:38:30.889Z,59.25
2023-02-27T14:55:54.708Z,59.00
2023-02-27T14:59:03.374Z,58.90
2023-02-27T15:05:59.601Z,58.88
2023-02-27T15:09:29.007Z,59.17
2023-02-27T15:16:16.185Z,59.08
2023-02-27T15:32:18.103Z,59.02
2023-02-27T15:59:22.710Z,59.18
2023-02-27T16:02:17.891Z,59.12
2023-02-27T16:05:40.658Z,59.32
2023-02-27T16:29:55.033Z,58.97
2023-02-27T16:37:12.564Z,58.79
2023-02-27T16:53:38.917Z,41.91
2023-02-27T16:57:10.988Z,41.92
2023-02-27T17:00:18.512Z,41.36
2023-02-27T17:07:06.763Z,39.22
2023-02-27T17:09:54.506Z,40.02
2023-02-27T17:13:34.181Z,39.53
2023-02-27T17:20:33.270Z,38.84
2023-02-27T17:24:08.242Z,38.90
2023-02-27T17:26:47.225Z,38.85
2023-02-27T17:37:19.913Z,38.11
2023-02-27T17:40:36.862Z,38.55
2023-02-27T17:44:07.503Z,37.91
2023-02-27T17:50:19.199Z,36.91
2023-02-27T17:53:38.496Z,36.36
2023-02-27T17:56:59.882Z,36.88
2023-02-27T17:59:55.523Z,37.08
2023-02-27T18:06:32.408Z,40.39
2023-02-27T19:04:06.778Z,48.07
2023-02-27T19:21:02.021Z,49.10
2023-02-27T19:45:42.076Z,50.26
2023-02-27T20:06:21.224Z,50.49
2023-02-27T20:26:09.887Z,51.36
2023-02-27T20:29:34.000Z,51.31
2023-02-27T20:32:49.410Z,51.47
2023-02-27T20:39:21.039Z,51.56
2023-02-27T20:43:09.246Z,51.92
2023-02-27T20:45:57.363Z,51.66
2023-02-27T20:52:21.119Z,51.96
2023-02-27T20:54:48.756Z,51.85
2023-02-27T20:57:16.375Z,52.07
2023-02-27T20:59:44.013Z,52.21
2023-02-27T21:02:12.143Z,52.09
2023-02-27T21:04:47.063Z,51.91
2023-02-27T21:07:17.365Z,52.22
2023-02-27T21:09:46.493Z,52.21
2023-02-27T21:12:14.718Z,52.31
2023-02-27T21:14:44.504Z,52.12
2023-02-27T21:17:13.699Z,52.45
2023-02-27T21:19:41.302Z,52.48
2023-02-27T21:22:10.972Z,52.63
2023-02-27T21:24:38.875Z,52.70
2023-02-27T21:27:07.824Z,52.59
2023-02-27T21:29:36.257Z,52.68
2023-02-27T21:32:04.092Z,52.70
2023-02-27T21:34:33.515Z,52.66
2023-02-27T21:37:02.105Z,52.58
2023-02-27T21:39:31.495Z,52.79
2023-02-27T21:42:00.035Z,52.87
2023-02-27T21:44:29.670Z,52.88
2023-02-27T21:46:57.287Z,52.82
2023-02-27T21:49:26.428Z,52.89
2023-02-27T21:51:54.435Z,52.92
2023-02-27T21:54:22.998Z,53.07
2023-02-27T21:56:51.000Z,53.27
2023-02-27T21:59:20.877Z,53.11
2023-02-27T22:01:50.000Z,53.10
2023-02-27T22:04:20.086Z,53.14
2023-02-27T22:06:48.619Z,53.34
2023-02-27T22:09:17.017Z,53.28
2023-02-27T22:11:45.309Z,53.17
2023-02-27T22:14:13.273Z,53.56
2023-02-27T22:16:41.239Z,53.41
2023-02-27T22:19:12.525Z,53.35
2023-02-27T22:21:41.155Z,53.48
2023-02-27T22:24:09.507Z,53.50
2023-02-27T22:26:37.480Z,53.50
2023-02-27T22:29:07.253Z,53.43
2023-02-27T22:31:37.447Z,53.57
2023-02-27T22:34:08.083Z,53.49
2023-02-27T22:36:37.383Z,53.58
2023-02-27T22:39:05.934Z,53.82
2023-02-27T22:41:35.440Z,53.60
2023-02-27T22:44:03.906Z,53.61
2023-02-27T22:46:33.239Z,53.62
2023-02-27T22:49:02.840Z,53.70
2023-02-27T22:51:31.118Z,53.83
2023-02-27T22:54:02.997Z,53.92
2023-02-27T22:56:31.162Z,53.67
2023-02-27T22:58:58.855Z,53.86
2023-02-27T23:01:28.952Z,53.68
2023-02-27T23:03:58.944Z,53.68
2023-02-27T23:06:28.524Z,54.05
2023-02-27T23:08:56.200Z,54.20
2023-02-27T23:11:25.167Z,53.92
2023-02-27T23:13:52.844Z,54.12
2023-02-27T23:16:21.054Z,53.98
2023-02-27T23:18:50.833Z,54.01
2023-02-27T23:21:19.788Z,54.35
2023-02-27T23:23:47.803Z,54.10
2023-02-27T23:26:15.409Z,54.15
2023-02-27T23:28:44.383Z,54.22
2023-02-27T23:31:12.373Z,54.10
2023-02-27T23:33:40.098Z,54.20
2023-02-27T23:36:08.273Z,54.23
2023-02-27T23:38:35.906Z,54.40
2023-02-27T23:41:07.466Z,53.92
2023-02-27T23:43:35.360Z,54.27
2023-02-27T23:46:08.440Z,54.18
2023-02-27T23:48:36.429Z,54.25
2023-02-27T23:51:05.750Z,53.93
2023-02-27T23:53:35.261Z,54.29
2023-02-27T23:56:12.905Z,54.38
2023-02-27T23:58:40.532Z,54.76
